sensor_id;sensor_type;location;lat;lon;timestamp;temperature;humidity
4757;DHT22;2392;52.578;13.426;2023-05-29T00:01:33;15.40;91.50
4757;DHT22;2392;52.578;13.426;2023-05-29T00:04:01;15.30;91.70
4757;DHT22;2392;52.578;13.426;2023-05-29T00:06:28;15.30;91.80
4757;DHT22;2392;52.578;13.426;2023-05-29T00:08:57;15.30;92.20
4757;DHT22;2392;52.578;13.426;2023-05-29T00:11:24;15.10;92.00
4757;DHT22;2392;52.578;13.426;2023-05-29T00:13:51;15.10;92.30
4757;DHT22;2392;52.578;13.426;2023-05-29T00:16:18;15.00;92.30
4757;DHT22;2392;52.578;13.426;2023-05-29T00:18:45;15.00;92.40
4757;DHT22;2392;52.578;13.426;2023-05-29T00:21:13;14.90;92.50
4757;DHT22;2392;52.578;13.426;2023-05-29T00:23:40;14.90;92.70
4757;DHT22;2392;52.578;13.426;2023-05-29T00:26:09;14.80;92.90
4757;DHT22;2392;52.578;13.426;2023-05-29T00:28:37;14.80;93.00
4757;DHT22;2392;52.578;13.426;2023-05-29T00:31:04;14.70;93.00
4757;DHT22;2392;52.578;13.426;2023-05-29T00:33:32;14.70;93.00
4757;DHT22;2392;52.578;13.426;2023-05-29T00:35:59;14.70;93.10
4757;DHT22;2392;52.578;13.426;2023-05-29T00:38:26;14.70;93.20
4757;DHT22;2392;52.578;13.426;2023-05-29T00:40:53;14.80;93.30
4757;DHT22;2392;52.578;13.426;2023-05-29T00:43:21;14.70;93.20
4757;DHT22;2392;52.578;13.426;2023-05-29T00:45:49;14.80;93.20
4757;DHT22;2392;52.578;13.426;2023-05-29T00:48:16;14.70;93.30
4757;DHT22;2392;52.578;13.426;2023-05-29T00:50:44;14.60;93.40
4757;DHT22;2392;52.578;13.426;2023-05-29T00:53:11;14.60;93.50
4757;DHT22;2392;52.578;13.426;2023-05-29T00:55:38;14.60;93.50
4757;DHT22;2392;52.578;13.426;2023-05-29T00:58:05;14.60;93.80
4757;DHT22;2392;52.578;13.426;2023-05-29T01:00:34;14.50;93.90
4757;DHT22;2392;52.578;13.426;2023-05-29T01:03:03;14.50;94.00
4757;DHT22;2392;52.578;13.426;2023-05-29T01:05:33;14.40;94.10
4757;DHT22;2392;52.578;13.426;2023-05-29T01:08:01;14.40;94.10
4757;DHT22;2392;52.578;13.426;2023-05-29T01:10:28;14.40;94.20
4757;DHT22;2392;52.578;13.426;2023-05-29T01:13:01;14.30;94.30
4757;DHT22;2392;52.578;13.426;2023-05-29T01:15:35;14.40;94.40
4757;DHT22;2392;52.578;13.426;2023-05-29T01:18:16;14.30;94.50
4757;DHT22;2392;52.578;13.426;2023-05-29T01:20:52;14.30;94.80
4757;DHT22;2392;52.578;13.426;2023-05-29T01:23:34;14.30;94.90
4757;DHT22;2392;52.578;13.426;2023-05-29T01:26:23;14.20;95.00
4757;DHT22;2392;52.578;13.426;2023-05-29T01:28:57;14.20;95.20
4757;DHT22;2392;52.578;13.426;2023-05-29T01:31:26;14.20;95.40
4757;DHT22;2392;52.578;13.426;2023-05-29T01:33:54;14.10;95.40
4757;DHT22;2392;52.578;13.426;2023-05-29T01:36:21;14.10;95.60
4757;DHT22;2392;52.578;13.426;2023-05-29T01:38:50;14.10;95.80
4757;DHT22;2392;52.578;13.426;2023-05-29T01:41:18;14.00;95.90
4757;DHT22;2392;52.578;13.426;2023-05-29T01:43:47;14.00;96.00
4757;DHT22;2392;52.578;13.426;2023-05-29T01:46:16;13.90;96.00
4757;DHT22;2392;52.578;13.426;2023-05-29T01:48:44;13.90;96.20
4757;DHT22;2392;52.578;13.426;2023-05-29T01:51:12;13.90;96.30
4757;DHT22;2392;52.578;13.426;2023-05-29T01:53:41;13.90;96.40
4757;DHT22;2392;52.578;13.426;2023-05-29T01:56:09;13.90;96.50
4757;DHT22;2392;52.578;13.426;2023-05-29T01:58:38;13.80;96.50
4757;DHT22;2392;52.578;13.426;2023-05-29T02:01:06;13.80;96.70
4757;DHT22;2392;52.578;13.426;2023-05-29T02:03:35;13.70;96.80
4757;DHT22;2392;52.578;13.426;2023-05-29T02:06:02;13.70;96.90
4757;DHT22;2392;52.578;13.426;2023-05-29T02:08:29;13.70;97.00
4757;DHT22;2392;52.578;13.426;2023-05-29T02:10:56;13.70;97.00
4757;DHT22;2392;52.578;13.426;2023-05-29T02:13:23;13.60;97.20
4757;DHT22;2392;52.578;13.426;2023-05-29T02:15:50;13.60;97.20
4757;DHT22;2392;52.578;13.426;2023-05-29T02:18:17;13.60;97.40
4757;DHT22;2392;52.578;13.426;2023-05-29T02:20:46;13.60;97.50
4757;DHT22;2392;52.578;13.426;2023-05-29T02:23:20;13.50;97.60
4757;DHT22;2392;52.578;13.426;2023-05-29T02:25:50;13.50;97.80
4757;DHT22;2392;52.578;13.426;2023-05-29T02:28:17;13.40;97.90
4757;DHT22;2392;52.578;13.426;2023-05-29T02:30:44;13.40;98.20
4757;DHT22;2392;52.578;13.426;2023-05-29T02:33:11;13.40;98.30
4757;DHT22;2392;52.578;13.426;2023-05-29T02:35:38;13.40;98.50
4757;DHT22;2392;52.578;13.426;2023-05-29T02:38:06;13.30;98.60
4757;DHT22;2392;52.578;13.426;2023-05-29T02:40:33;13.30;98.80
4757;DHT22;2392;52.578;13.426;2023-05-29T02:43:00;13.20;99.20
4757;DHT22;2392;52.578;13.426;2023-05-29T02:45:30;13.20;99.20
4757;DHT22;2392;52.578;13.426;2023-05-29T02:47:57;13.20;99.30
4757;DHT22;2392;52.578;13.426;2023-05-29T02:50:26;13.10;99.40
4757;DHT22;2392;52.578;13.426;2023-05-29T02:52:53;13.10;99.60
4757;DHT22;2392;52.578;13.426;2023-05-29T02:55:21;13.10;99.80
4757;DHT22;2392;52.578;13.426;2023-05-29T02:57:48;13.10;99.80
4757;DHT22;2392;52.578;13.426;2023-05-29T03:00:19;13.00;99.90
4757;DHT22;2392;52.578;13.426;2023-05-29T03:02:46;13.00;99.90
4757;DHT22;2392;52.578;13.426;2023-05-29T03:05:13;13.00;99.90
4757;DHT22;2392;52.578;13.426;2023-05-29T03:07:42;12.90;99.90
4757;DHT22;2392;52.578;13.426;2023-05-29T03:10:09;12.90;99.90
4757;DHT22;2392;52.578;13.426;2023-05-29T03:12:38;12.90;99.90
4757;DHT22;2392;52.578;13.426;2023-05-29T03:15:07;12.90;99.90
4757;DHT22;2392;52.578;13.426;2023-05-29T03:17:34;12.80;99.90
4757;DHT22;2392;52.578;13.426;2023-05-29T03:20:03;12.80;99.90
4757;DHT22;2392;52.578;13.426;2023-05-29T03:22:34;12.80;99.90
4757;DHT22;2392;52.578;13.426;2023-05-29T03:25:02;12.80;99.90
4757;DHT22;2392;52.578;13.426;2023-05-29T03:27:29;12.80;99.90
4757;DHT22;2392;52.578;13.426;2023-05-29T03:30:07;12.80;99.90
4757;DHT22;2392;52.578;13.426;2023-05-29T03:32:35;12.80;99.90
4757;DHT22;2392;52.578;13.426;2023-05-29T03:35:03;12.80;99.90
4757;DHT22;2392;52.578;13.426;2023-05-29T03:37:30;12.80;99.90
4757;DHT22;2392;52.578;13.426;2023-05-29T03:39:57;12.70;99.90
4757;DHT22;2392;52.578;13.426;2023-05-29T03:42:24;12.70;99.90
4757;DHT22;2392;52.578;13.426;2023-05-29T03:44:52;12.70;99.90
4757;DHT22;2392;52.578;13.426;2023-05-29T03:47:23;12.70;99.90
4757;DHT22;2392;52.578;13.426;2023-05-29T03:49:51;12.70;99.90
4757;DHT22;2392;52.578;13.426;2023-05-29T03:52:18;12.70;99.90
4757;DHT22;2392;52.578;13.426;2023-05-29T03:54:46;12.80;99.90
4757;DHT22;2392;52.578;13.426;2023-05-29T03:57:13;12.80;99.90
4757;DHT22;2392;52.578;13.426;2023-05-29T03:59:42;12.80;99.90
4757;DHT22;2392;52.578;13.426;2023-05-29T04:02:10;12.80;99.90
4757;DHT22;2392;52.578;13.426;2023-05-29T04:04:39;12.80;99.90
4757;DHT22;2392;52.578;13.426;2023-05-29T04:07:06;12.90;99.90
4757;DHT22;2392;52.578;13.426;2023-05-29T04:09:33;12.90;99.90
4757;DHT22;2392;52.578;13.426;2023-05-29T04:12:00;12.90;99.90
4757;DHT22;2392;52.578;13.426;2023-05-29T04:14:28;12.90;99.90
4757;DHT22;2392;52.578;13.426;2023-05-29T04:16:56;13.00;99.90
4757;DHT22;2392;52.578;13.426;2023-05-29T04:19:24;13.00;99.90
4757;DHT22;2392;52.578;13.426;2023-05-29T04:21:52;13.00;99.90
4757;DHT22;2392;52.578;13.426;2023-05-29T04:24:19;13.10;99.90
4757;DHT22;2392;52.578;13.426;2023-05-29T04:26:46;13.20;99.90
4757;DHT22;2392;52.578;13.426;2023-05-29T04:29:14;13.20;99.90
4757;DHT22;2392;52.578;13.426;2023-05-29T04:31:42;13.30;99.90
4757;DHT22;2392;52.578;13.426;2023-05-29T04:34:09;13.30;99.90
4757;DHT22;2392;52.578;13.426;2023-05-29T04:36:37;13.40;99.90
4757;DHT22;2392;52.578;13.426;2023-05-29T04:39:12;13.40;99.90
4757;DHT22;2392;52.578;13.426;2023-05-29T04:41:39;13.40;99.90
4757;DHT22;2392;52.578;13.426;2023-05-29T04:44:09;13.50;99.90
4757;DHT22;2392;52.578;13.426;2023-05-29T04:46:49;13.50;99.90
4757;DHT22;2392;52.578;13.426;2023-05-29T04:49:18;13.60;99.90
4757;DHT22;2392;52.578;13.426;2023-05-29T04:51:46;13.60;99.90
4757;DHT22;2392;52.578;13.426;2023-05-29T04:54:14;13.70;99.90
4757;DHT22;2392;52.578;13.426;2023-05-29T04:56:42;13.70;99.90
4757;DHT22;2392;52.578;13.426;2023-05-29T04:59:12;13.70;99.90
4757;DHT22;2392;52.578;13.426;2023-05-29T05:01:40;13.80;99.90
4757;DHT22;2392;52.578;13.426;2023-05-29T05:04:09;13.80;99.90
4757;DHT22;2392;52.578;13.426;2023-05-29T05:06:36;13.80;99.90
4757;DHT22;2392;52.578;13.426;2023-05-29T05:09:05;13.80;99.90
4757;DHT22;2392;52.578;13.426;2023-05-29T05:11:33;13.80;99.90
4757;DHT22;2392;52.578;13.426;2023-05-29T05:14:05;13.80;99.90
4757;DHT22;2392;52.578;13.426;2023-05-29T05:16:32;13.80;99.90
4757;DHT22;2392;52.578;13.426;2023-05-29T05:18:59;13.90;99.90
4757;DHT22;2392;52.578;13.426;2023-05-29T05:21:30;13.90;99.90
4757;DHT22;2392;52.578;13.426;2023-05-29T05:23:59;14.00;99.90
4757;DHT22;2392;52.578;13.426;2023-05-29T05:26:26;14.00;99.90
4757;DHT22;2392;52.578;13.426;2023-05-29T05:28:56;14.10;99.90
4757;DHT22;2392;52.578;13.426;2023-05-29T05:31:26;14.10;99.90
4757;DHT22;2392;52.578;13.426;2023-05-29T05:33:53;14.20;99.90
4757;DHT22;2392;52.578;13.426;2023-05-29T05:36:21;14.20;99.90
4757;DHT22;2392;52.578;13.426;2023-05-29T05:38:53;14.30;99.90
4757;DHT22;2392;52.578;13.426;2023-05-29T05:41:22;14.40;99.90
4757;DHT22;2392;52.578;13.426;2023-05-29T05:43:50;14.40;99.90
4757;DHT22;2392;52.578;13.426;2023-05-29T05:46:30;14.50;99.90
4757;DHT22;2392;52.578;13.426;2023-05-29T05:48:57;14.50;99.90
4757;DHT22;2392;52.578;13.426;2023-05-29T05:51:24;14.60;99.90
4757;DHT22;2392;52.578;13.426;2023-05-29T05:53:52;14.70;99.90
4757;DHT22;2392;52.578;13.426;2023-05-29T05:56:19;14.70;99.90
4757;DHT22;2392;52.578;13.426;2023-05-29T05:58:47;14.80;99.90
4757;DHT22;2392;52.578;13.426;2023-05-29T06:01:18;14.80;99.90
4757;DHT22;2392;52.578;13.426;2023-05-29T06:03:47;14.90;99.80
4757;DHT22;2392;52.578;13.426;2023-05-29T06:06:14;15.00;99.40
4757;DHT22;2392;52.578;13.426;2023-05-29T06:08:43;15.10;99.10
4757;DHT22;2392;52.578;13.426;2023-05-29T06:11:11;15.20;98.80
4757;DHT22;2392;52.578;13.426;2023-05-29T06:13:42;15.20;98.50
4757;DHT22;2392;52.578;13.426;2023-05-29T06:16:16;15.30;98.40
4757;DHT22;2392;52.578;13.426;2023-05-29T06:18:43;15.40;98.40
4757;DHT22;2392;52.578;13.426;2023-05-29T06:21:13;15.50;98.30
4757;DHT22;2392;52.578;13.426;2023-05-29T06:23:50;15.60;98.20
4757;DHT22;2392;52.578;13.426;2023-05-29T06:26:17;15.60;97.90
4757;DHT22;2392;52.578;13.426;2023-05-29T06:28:44;15.70;97.80
4757;DHT22;2392;52.578;13.426;2023-05-29T06:31:12;15.80;97.70
4757;DHT22;2392;52.578;13.426;2023-05-29T06:33:39;15.80;97.70
4757;DHT22;2392;52.578;13.426;2023-05-29T06:36:07;16.00;97.80
4757;DHT22;2392;52.578;13.426;2023-05-29T06:38:36;16.00;97.40
4757;DHT22;2392;52.578;13.426;2023-05-29T06:41:04;16.10;96.90
4757;DHT22;2392;52.578;13.426;2023-05-29T06:43:33;16.20;96.90
4757;DHT22;2392;52.578;13.426;2023-05-29T06:46:02;16.30;96.80
4757;DHT22;2392;52.578;13.426;2023-05-29T06:48:32;16.40;96.70
4757;DHT22;2392;52.578;13.426;2023-05-29T06:51:00;16.50;96.30
4757;DHT22;2392;52.578;13.426;2023-05-29T06:53:40;16.60;96.10
4757;DHT22;2392;52.578;13.426;2023-05-29T06:56:10;16.70;95.80
4757;DHT22;2392;52.578;13.426;2023-05-29T06:58:39;16.70;95.30
4757;DHT22;2392;52.578;13.426;2023-05-29T07:01:06;16.70;95.20
4757;DHT22;2392;52.578;13.426;2023-05-29T07:03:35;16.90;95.30
4757;DHT22;2392;52.578;13.426;2023-05-29T07:06:04;17.00;95.20
4757;DHT22;2392;52.578;13.426;2023-05-29T07:08:32;17.10;94.90
4757;DHT22;2392;52.578;13.426;2023-05-29T07:11:01;17.10;94.50
4757;DHT22;2392;52.578;13.426;2023-05-29T07:13:28;17.20;94.00
4757;DHT22;2392;52.578;13.426;2023-05-29T07:15:55;17.30;94.10
4757;DHT22;2392;52.578;13.426;2023-05-29T07:18:31;17.30;93.90
4757;DHT22;2392;52.578;13.426;2023-05-29T07:21:00;17.40;93.70
4757;DHT22;2392;52.578;13.426;2023-05-29T07:23:28;17.50;93.70
4757;DHT22;2392;52.578;13.426;2023-05-29T07:25:56;17.60;93.90
4757;DHT22;2392;52.578;13.426;2023-05-29T07:28:26;17.70;93.90
4757;DHT22;2392;52.578;13.426;2023-05-29T07:30:53;17.70;93.40
4757;DHT22;2392;52.578;13.426;2023-05-29T07:33:21;17.80;93.40
4757;DHT22;2392;52.578;13.426;2023-05-29T07:35:48;17.90;93.30
4757;DHT22;2392;52.578;13.426;2023-05-29T07:38:16;17.90;92.70
4757;DHT22;2392;52.578;13.426;2023-05-29T07:40:43;17.90;92.70
4757;DHT22;2392;52.578;13.426;2023-05-29T07:43:26;18.00;92.20
4757;DHT22;2392;52.578;13.426;2023-05-29T07:45:57;18.00;91.90
4757;DHT22;2392;52.578;13.426;2023-05-29T07:48:25;18.10;91.70
4757;DHT22;2392;52.578;13.426;2023-05-29T07:50:52;18.10;91.90
4757;DHT22;2392;52.578;13.426;2023-05-29T07:53:19;18.20;92.60
4757;DHT22;2392;52.578;13.426;2023-05-29T07:55:47;18.30;92.20
4757;DHT22;2392;52.578;13.426;2023-05-29T07:58:14;18.30;92.00
4757;DHT22;2392;52.578;13.426;2023-05-29T08:00:44;18.40;92.30
4757;DHT22;2392;52.578;13.426;2023-05-29T08:03:12;18.50;92.00
4757;DHT22;2392;52.578;13.426;2023-05-29T08:06:05;18.50;91.70
4757;DHT22;2392;52.578;13.426;2023-05-29T08:08:34;18.50;91.00
4757;DHT22;2392;52.578;13.426;2023-05-29T08:11:01;18.60;90.70
4757;DHT22;2392;52.578;13.426;2023-05-29T08:13:29;18.60;91.10
4757;DHT22;2392;52.578;13.426;2023-05-29T08:15:58;18.70;91.40
4757;DHT22;2392;52.578;13.426;2023-05-29T08:18:25;18.70;91.50
4757;DHT22;2392;52.578;13.426;2023-05-29T08:20:53;18.70;91.30
4757;DHT22;2392;52.578;13.426;2023-05-29T08:23:19;18.80;89.80
4757;DHT22;2392;52.578;13.426;2023-05-29T08:25:46;18.80;90.10
4757;DHT22;2392;52.578;13.426;2023-05-29T08:28:14;18.90;88.70
4757;DHT22;2392;52.578;13.426;2023-05-29T08:30:41;18.90;88.00
4757;DHT22;2392;52.578;13.426;2023-05-29T08:33:09;18.90;89.10
4757;DHT22;2392;52.578;13.426;2023-05-29T08:35:36;18.90;89.30
4757;DHT22;2392;52.578;13.426;2023-05-29T08:38:03;19.00;88.10
4757;DHT22;2392;52.578;13.426;2023-05-29T08:40:30;19.00;87.40
4757;DHT22;2392;52.578;13.426;2023-05-29T08:43:02;19.00;87.90
4757;DHT22;2392;52.578;13.426;2023-05-29T08:45:29;19.00;87.50
4757;DHT22;2392;52.578;13.426;2023-05-29T08:48:00;19.00;88.10
4757;DHT22;2392;52.578;13.426;2023-05-29T08:50:29;19.10;87.90
4757;DHT22;2392;52.578;13.426;2023-05-29T08:52:57;19.20;88.50
4757;DHT22;2392;52.578;13.426;2023-05-29T08:55:24;19.20;88.30
4757;DHT22;2392;52.578;13.426;2023-05-29T08:57:51;19.30;88.70
4757;DHT22;2392;52.578;13.426;2023-05-29T09:00:18;19.30;88.50
4757;DHT22;2392;52.578;13.426;2023-05-29T09:02:48;19.40;88.70
4757;DHT22;2392;52.578;13.426;2023-05-29T09:05:15;19.50;88.90
4757;DHT22;2392;52.578;13.426;2023-05-29T09:07:44;19.50;88.80
4757;DHT22;2392;52.578;13.426;2023-05-29T09:10:12;19.60;88.40
4757;DHT22;2392;52.578;13.426;2023-05-29T09:12:41;19.70;88.50
4757;DHT22;2392;52.578;13.426;2023-05-29T09:15:16;19.80;88.60
4757;DHT22;2392;52.578;13.426;2023-05-29T09:17:44;19.90;87.80
4757;DHT22;2392;52.578;13.426;2023-05-29T09:20:18;20.00;87.10
4757;DHT22;2392;52.578;13.426;2023-05-29T09:22:54;20.10;86.70
4757;DHT22;2392;52.578;13.426;2023-05-29T09:25:22;20.20;86.70
4757;DHT22;2392;52.578;13.426;2023-05-29T09:27:55;20.20;87.10
4757;DHT22;2392;52.578;13.426;2023-05-29T09:30:36;20.30;87.20
4757;DHT22;2392;52.578;13.426;2023-05-29T09:33:04;20.40;86.60
4757;DHT22;2392;52.578;13.426;2023-05-29T09:35:36;20.40;85.70
4757;DHT22;2392;52.578;13.426;2023-05-29T09:38:05;20.40;85.70
4757;DHT22;2392;52.578;13.426;2023-05-29T09:40:33;20.50;85.30
4757;DHT22;2392;52.578;13.426;2023-05-29T09:43:04;20.50;83.90
4757;DHT22;2392;52.578;13.426;2023-05-29T09:45:36;20.60;83.40
4757;DHT22;2392;52.578;13.426;2023-05-29T09:48:05;20.70;83.40
4757;DHT22;2392;52.578;13.426;2023-05-29T09:50:33;20.70;82.90
4757;DHT22;2392;52.578;13.426;2023-05-29T09:53:01;20.70;83.10
4757;DHT22;2392;52.578;13.426;2023-05-29T09:55:31;20.90;82.80
4757;DHT22;2392;52.578;13.426;2023-05-29T09:58:00;21.10;81.30
4757;DHT22;2392;52.578;13.426;2023-05-29T10:00:28;21.20;81.50
4757;DHT22;2392;52.578;13.426;2023-05-29T10:02:56;21.40;82.80
4757;DHT22;2392;52.578;13.426;2023-05-29T10:05:24;21.40;81.60
4757;DHT22;2392;52.578;13.426;2023-05-29T10:07:54;21.50;80.60
4757;DHT22;2392;52.578;13.426;2023-05-29T10:10:21;21.50;80.00
4757;DHT22;2392;52.578;13.426;2023-05-29T10:12:55;21.40;80.30
4757;DHT22;2392;52.578;13.426;2023-05-29T10:15:24;21.40;79.80
4757;DHT22;2392;52.578;13.426;2023-05-29T10:17:59;21.40;79.10
4757;DHT22;2392;52.578;13.426;2023-05-29T10:20:28;21.30;79.40
4757;DHT22;2392;52.578;13.426;2023-05-29T10:22:59;21.50;79.30
4757;DHT22;2392;52.578;13.426;2023-05-29T10:25:27;22.10;79.10
4757;DHT22;2392;52.578;13.426;2023-05-29T10:27:58;22.70;79.10
4757;DHT22;2392;52.578;13.426;2023-05-29T10:30:31;23.50;76.80
4757;DHT22;2392;52.578;13.426;2023-05-29T10:33:38;24.30;75.00
4757;DHT22;2392;52.578;13.426;2023-05-29T10:36:19;25.30;74.50
4757;DHT22;2392;52.578;13.426;2023-05-29T10:38:50;25.70;71.60
4757;DHT22;2392;52.578;13.426;2023-05-29T10:41:31;25.40;70.80
4757;DHT22;2392;52.578;13.426;2023-05-29T10:44:01;24.70;69.90
4757;DHT22;2392;52.578;13.426;2023-05-29T10:47:01;24.00;70.40
4757;DHT22;2392;52.578;13.426;2023-05-29T10:49:29;23.40;71.10
4757;DHT22;2392;52.578;13.426;2023-05-29T10:51:57;23.60;72.60
4757;DHT22;2392;52.578;13.426;2023-05-29T10:54:26;24.70;73.00
4757;DHT22;2392;52.578;13.426;2023-05-29T10:56:55;25.90;71.90
4757;DHT22;2392;52.578;13.426;2023-05-29T10:59:25;27.20;68.90
4757;DHT22;2392;52.578;13.426;2023-05-29T11:01:53;28.50;65.80
4757;DHT22;2392;52.578;13.426;2023-05-29T11:04:27;29.70;63.20
4757;DHT22;2392;52.578;13.426;2023-05-29T11:06:56;31.00;60.40
4757;DHT22;2392;52.578;13.426;2023-05-29T11:09:31;32.20;58.10
4757;DHT22;2392;52.578;13.426;2023-05-29T11:12:13;33.10;56.30
4757;DHT22;2392;52.578;13.426;2023-05-29T11:14:55;33.30;53.90
4757;DHT22;2392;52.578;13.426;2023-05-29T11:17:33;31.90;53.00
4757;DHT22;2392;52.578;13.426;2023-05-29T11:20:16;30.80;54.20
4757;DHT22;2392;52.578;13.426;2023-05-29T11:23:00;29.50;55.30
4757;DHT22;2392;52.578;13.426;2023-05-29T11:25:27;28.40;56.70
4757;DHT22;2392;52.578;13.426;2023-05-29T11:27:55;28.10;58.20
4757;DHT22;2392;52.578;13.426;2023-05-29T11:30:24;27.90;58.70
4757;DHT22;2392;52.578;13.426;2023-05-29T11:32:52;27.40;57.30
4757;DHT22;2392;52.578;13.426;2023-05-29T11:35:22;26.70;58.10
4757;DHT22;2392;52.578;13.426;2023-05-29T11:37:49;26.10;58.70
4757;DHT22;2392;52.578;13.426;2023-05-29T11:40:16;25.40;60.40
4757;DHT22;2392;52.578;13.426;2023-05-29T11:42:44;25.00;61.30
4757;DHT22;2392;52.578;13.426;2023-05-29T11:45:15;24.40;62.20
4757;DHT22;2392;52.578;13.426;2023-05-29T11:47:54;24.10;63.30
4757;DHT22;2392;52.578;13.426;2023-05-29T11:50:21;23.70;64.40
4757;DHT22;2392;52.578;13.426;2023-05-29T11:52:49;23.50;64.30
4757;DHT22;2392;52.578;13.426;2023-05-29T11:55:17;23.20;65.10
4757;DHT22;2392;52.578;13.426;2023-05-29T11:57:45;23.10;65.60
4757;DHT22;2392;52.578;13.426;2023-05-29T12:00:14;23.10;67.00
4757;DHT22;2392;52.578;13.426;2023-05-29T12:02:41;23.00;66.60
4757;DHT22;2392;52.578;13.426;2023-05-29T12:05:10;22.90;66.30
4757;DHT22;2392;52.578;13.426;2023-05-29T12:07:47;23.00;66.70
4757;DHT22;2392;52.578;13.426;2023-05-29T12:10:16;23.00;66.70
4757;DHT22;2392;52.578;13.426;2023-05-29T12:12:47;22.80;66.10
4757;DHT22;2392;52.578;13.426;2023-05-29T12:15:14;22.80;66.70
4757;DHT22;2392;52.578;13.426;2023-05-29T12:17:43;22.70;66.90
4757;DHT22;2392;52.578;13.426;2023-05-29T12:20:13;22.70;67.40
4757;DHT22;2392;52.578;13.426;2023-05-29T12:22:41;22.80;67.60
4757;DHT22;2392;52.578;13.426;2023-05-29T12:25:10;22.90;67.40
4757;DHT22;2392;52.578;13.426;2023-05-29T12:27:38;22.90;66.40
4757;DHT22;2392;52.578;13.426;2023-05-29T12:30:10;22.90;64.60
4757;DHT22;2392;52.578;13.426;2023-05-29T12:32:38;23.00;65.20
4757;DHT22;2392;52.578;13.426;2023-05-29T12:35:16;23.10;65.70
4757;DHT22;2392;52.578;13.426;2023-05-29T12:37:47;23.00;64.70
4757;DHT22;2392;52.578;13.426;2023-05-29T12:40:16;23.00;63.80
4757;DHT22;2392;52.578;13.426;2023-05-29T12:42:44;23.00;63.50
4757;DHT22;2392;52.578;13.426;2023-05-29T12:45:11;23.10;63.30
4757;DHT22;2392;52.578;13.426;2023-05-29T12:47:45;23.10;64.90
4757;DHT22;2392;52.578;13.426;2023-05-29T12:50:24;23.10;65.40
4757;DHT22;2392;52.578;13.426;2023-05-29T12:52:56;23.10;65.20
4757;DHT22;2392;52.578;13.426;2023-05-29T12:55:24;23.10;64.80
4757;DHT22;2392;52.578;13.426;2023-05-29T12:57:51;23.20;65.00
4757;DHT22;2392;52.578;13.426;2023-05-29T13:00:19;23.20;64.80
4757;DHT22;2392;52.578;13.426;2023-05-29T13:02:47;23.20;65.30
4757;DHT22;2392;52.578;13.426;2023-05-29T13:05:15;23.30;65.30
4757;DHT22;2392;52.578;13.426;2023-05-29T13:07:46;23.30;64.40
4757;DHT22;2392;52.578;13.426;2023-05-29T13:10:13;23.30;64.40
4757;DHT22;2392;52.578;13.426;2023-05-29T13:12:41;23.50;64.90
4757;DHT22;2392;52.578;13.426;2023-05-29T13:15:09;23.50;64.60
4757;DHT22;2392;52.578;13.426;2023-05-29T13:17:36;23.30;64.60
4757;DHT22;2392;52.578;13.426;2023-05-29T13:20:08;23.20;65.20
4757;DHT22;2392;52.578;13.426;2023-05-29T13:22:35;23.20;66.10
4757;DHT22;2392;52.578;13.426;2023-05-29T13:25:04;23.10;66.40
4757;DHT22;2392;52.578;13.426;2023-05-29T13:27:33;22.90;66.60
4757;DHT22;2392;52.578;13.426;2023-05-29T13:30:01;22.90;66.90
4757;DHT22;2392;52.578;13.426;2023-05-29T13:32:28;22.80;66.70
4757;DHT22;2392;52.578;13.426;2023-05-29T13:34:55;22.90;67.10
4757;DHT22;2392;52.578;13.426;2023-05-29T13:37:22;23.00;67.00
4757;DHT22;2392;52.578;13.426;2023-05-29T13:39:50;23.10;67.00
4757;DHT22;2392;52.578;13.426;2023-05-29T13:42:19;23.20;67.00
4757;DHT22;2392;52.578;13.426;2023-05-29T13:44:47;23.30;66.60
4757;DHT22;2392;52.578;13.426;2023-05-29T13:47:14;23.50;66.20
4757;DHT22;2392;52.578;13.426;2023-05-29T13:49:42;23.60;64.90
4757;DHT22;2392;52.578;13.426;2023-05-29T13:52:09;23.70;64.90
4757;DHT22;2392;52.578;13.426;2023-05-29T13:54:36;23.70;64.80
4757;DHT22;2392;52.578;13.426;2023-05-29T13:57:04;23.70;63.90
4757;DHT22;2392;52.578;13.426;2023-05-29T13:59:33;23.60;63.60
4757;DHT22;2392;52.578;13.426;2023-05-29T14:02:02;23.60;63.80
4757;DHT22;2392;52.578;13.426;2023-05-29T14:04:30;23.50;64.90
4757;DHT22;2392;52.578;13.426;2023-05-29T14:06:57;23.40;64.90
4757;DHT22;2392;52.578;13.426;2023-05-29T14:09:24;23.30;65.10
4757;DHT22;2392;52.578;13.426;2023-05-29T14:11:53;23.30;65.10
4757;DHT22;2392;52.578;13.426;2023-05-29T14:14:20;23.20;64.90
4757;DHT22;2392;52.578;13.426;2023-05-29T14:16:49;23.00;64.90
4757;DHT22;2392;52.578;13.426;2023-05-29T14:19:17;22.90;65.40
4757;DHT22;2392;52.578;13.426;2023-05-29T14:21:44;22.90;65.80
4757;DHT22;2392;52.578;13.426;2023-05-29T14:24:12;23.00;66.00
4757;DHT22;2392;52.578;13.426;2023-05-29T14:26:41;23.20;66.00
4757;DHT22;2392;52.578;13.426;2023-05-29T14:29:11;23.20;64.00
4757;DHT22;2392;52.578;13.426;2023-05-29T14:31:38;23.30;63.50
4757;DHT22;2392;52.578;13.426;2023-05-29T14:34:07;23.30;63.90
4757;DHT22;2392;52.578;13.426;2023-05-29T14:36:34;23.30;62.20
4757;DHT22;2392;52.578;13.426;2023-05-29T14:39:01;23.30;62.70
4757;DHT22;2392;52.578;13.426;2023-05-29T14:41:28;23.40;63.00
4757;DHT22;2392;52.578;13.426;2023-05-29T14:43:55;23.50;63.50
4757;DHT22;2392;52.578;13.426;2023-05-29T14:46:24;23.30;62.90
4757;DHT22;2392;52.578;13.426;2023-05-29T14:48:52;23.30;63.90
4757;DHT22;2392;52.578;13.426;2023-05-29T14:51:21;23.30;64.40
4757;DHT22;2392;52.578;13.426;2023-05-29T14:53:50;23.30;64.30
4757;DHT22;2392;52.578;13.426;2023-05-29T14:56:17;23.30;64.30
4757;DHT22;2392;52.578;13.426;2023-05-29T14:58:44;23.30;64.30
4757;DHT22;2392;52.578;13.426;2023-05-29T15:01:13;23.40;65.30
4757;DHT22;2392;52.578;13.426;2023-05-29T15:03:40;23.40;64.30
4757;DHT22;2392;52.578;13.426;2023-05-29T15:06:09;23.30;63.60
4757;DHT22;2392;52.578;13.426;2023-05-29T15:08:38;23.20;64.10
4757;DHT22;2392;52.578;13.426;2023-05-29T15:11:07;23.10;64.40
4757;DHT22;2392;52.578;13.426;2023-05-29T15:13:35;23.10;64.30
4757;DHT22;2392;52.578;13.426;2023-05-29T15:16:02;23.10;63.80
4757;DHT22;2392;52.578;13.426;2023-05-29T15:18:29;23.10;63.70
4757;DHT22;2392;52.578;13.426;2023-05-29T15:20:56;23.00;62.90
4757;DHT22;2392;52.578;13.426;2023-05-29T15:23:24;23.00;63.40
4757;DHT22;2392;52.578;13.426;2023-05-29T15:25:53;22.90;63.10
4757;DHT22;2392;52.578;13.426;2023-05-29T15:28:20;23.00;63.50
4757;DHT22;2392;52.578;13.426;2023-05-29T15:30:47;23.10;63.50
4757;DHT22;2392;52.578;13.426;2023-05-29T15:33:14;23.10;63.40
4757;DHT22;2392;52.578;13.426;2023-05-29T15:35:41;23.20;63.90
4757;DHT22;2392;52.578;13.426;2023-05-29T15:38:09;23.10;63.40
4757;DHT22;2392;52.578;13.426;2023-05-29T15:40:38;23.00;64.00
4757;DHT22;2392;52.578;13.426;2023-05-29T15:43:06;23.00;64.30
4757;DHT22;2392;52.578;13.426;2023-05-29T15:45:33;23.00;64.50
4757;DHT22;2392;52.578;13.426;2023-05-29T15:48:00;23.10;65.00
4757;DHT22;2392;52.578;13.426;2023-05-29T15:50:27;23.10;64.30
4757;DHT22;2392;52.578;13.426;2023-05-29T15:52:54;23.10;64.80
4757;DHT22;2392;52.578;13.426;2023-05-29T15:55:22;23.10;64.40
4757;DHT22;2392;52.578;13.426;2023-05-29T15:57:49;23.10;64.20